Latest Weather Observations for Redcliffe

IDQ60901

Issued at 12:11 pm EST Tuesday 23 April 2019 (issued every 10 minutes, with the page automatically refreshed every 10 minutes)

About weather observations | Map of Brisbane area stations | Latest observations for Brisbane area | Other Formats
Station Details ID: 040958 Name: REDCLIFFE Lat: -27.22 Lon: 153.09 Height: 12.6 m
Data from the previous 72 hours. | See also: Recent months at Redcliffe
Date/Time
EST
Temp
°C
App
Temp
°C
Dew
Point
°C
Rel
Hum
%
Delta-T
°C
Wind Press
QNH
hPa
Press
MSL
hPa
Rain since
9am
mm
Dir  Spd
km/h
Gust
km/h
Spd
kts
Gust
kts
23/12:00pm 24.2 21.0 18.2 69 3.8 ESE 32 39 17 21 1022.2 1022.1 1.0
23/11:30am 23.7 20.9 19.0 75 3.0 ESE 32 37 17 20 1022.4 1022.3 1.0
23/11:00am 22.5 19.7 19.1 81 2.1 SE 32 35 17 19 1022.7 1022.6 1.0
23/10:30am 23.1 20.8 18.4 75 3.0 SE 28 37 15 20 1023.1 1023.0 0.0
23/10:00am 23.2 20.1 18.5 75 2.9 SE 32 37 17 20 1023.3 1023.2 0.0
23/09:30am 21.5 20.3 19.2 87 1.5 SSE 24 30 13 16 1023.5 1023.4 0.0
23/09:00am 21.5 20.8 19.4 88 1.3 SSE 22 26 12 14 1023.6 1023.5 4.6
23/08:30am 21.3 20.6 18.7 85 1.6 S 20 30 11 16 1023.6 1023.5 4.6
23/08:00am 21.6 19.6 19.2 86 1.5 SSE 28 32 15 17 1023.5 1023.4 4.6
23/07:30am 20.8 19.6 18.4 86 1.5 SSE 22 32 12 17 1023.3 1023.2 4.6
23/07:00am 20.7 19.9 17.9 84 1.7 S 19 26 10 14 1022.9 1022.8 4.4
23/06:30am 20.5 20.0 17.9 85 1.6 SSW 17 22 9 12 1022.6 1022.5 4.4
23/06:00am 20.1 19.6 17.9 87 1.4 SSW 17 24 9 13 1022.1 1022.0 4.4
23/05:30am 20.1 20.1 18.1 88 1.2 SSW 15 24 8 13 1021.8 1021.7 4.4
23/05:00am 20.1 19.7 18.1 88 1.2 SSW 17 22 9 12 1021.5 1021.4 4.4
23/04:30am 20.1 19.3 18.1 88 1.2 S 19 22 10 12 1021.3 1021.2 4.4
23/04:00am 20.0 19.6 18.0 88 1.2 SSW 17 20 9 11 1021.2 1021.1 4.4
23/03:30am 20.1 19.6 17.9 87 1.4 SSW 17 20 9 11 1021.2 1021.1 4.4
23/03:00am 20.4 19.7 18.2 87 1.4 S 19 26 10 14 1021.3 1021.2 4.4
23/02:30am 20.6 19.8 18.4 87 1.4 S 20 30 11 16 1021.2 1021.1 4.4
23/02:00am 20.8 20.6 18.6 87 1.4 SSW 17 24 9 13 1021.5 1021.4 4.4
23/01:30am 20.8 20.9 18.4 86 1.5 SSW 15 22 8 12 1021.7 1021.6 4.4
23/01:00am 21.1 21.1 18.1 83 1.9 SSW 15 20 8 11 1022.0 1021.9 4.4
23/12:30am 23.0 20.8 17.9 73 3.2 SE 26 32 14 17 1022.2 1022.1 4.4
23/12:00am 22.7 20.6 18.9 79 2.4 SE 28 32 15 17 1022.2 1022.1 4.4
 
Date/Time
EST
Temp
°C
App
Temp
°C
Dew
Point
°C
Rel
Hum
%
Delta-T
°C
Wind Press
QNH
hPa
Press
MSL
hPa
Rain since
9am
mm
Dir  Spd
km/h
Gust
km/h
Spd
kts
Gust
kts
22/11:30pm 21.3 18.9 19.0 87 1.5 SE 30 35 16 19 1022.2 1022.1 4.4
22/11:00pm 21.8 19.4 19.0 84 1.8 SE 30 33 16 18 1022.4 1022.3 4.2
22/10:30pm 20.9 19.7 19.2 90 1.1 SSE 24 30 13 16 1022.3 1022.2 4.2
22/10:00pm 20.5 19.4 18.6 89 1.2 ESE 22 28 12 15 1022.5 1022.4 4.2
22/09:30pm 20.8 20.4 18.9 89 1.2 SSE 19 28 10 15 1022.5 1022.4 4.2
22/09:00pm 21.2 20.6 18.8 86 1.5 ESE 20 24 11 13 1022.1 1022.0 4.2
22/08:30pm 20.9 20.6 19.2 90 1.1 S 19 22 10 12 1022.0 1021.9 4.2
22/08:00pm 20.8 19.5 19.1 90 1.1 S 24 28 13 15 1021.9 1021.8 4.2
22/07:30pm 21.2 19.8 18.9 87 1.4 S 24 28 13 15 1021.7 1021.6 3.0
22/07:00pm 21.4 19.8 19.3 88 1.3 SSE 26 30 14 16 1021.3 1021.2 2.4
22/06:30pm 21.0 18.5 18.8 87 1.4 S 30 35 16 19 1020.9 1020.8 2.4
22/06:00pm 21.5 17.9 18.5 83 1.9 SSE 35 41 19 22 1020.6 1020.5 2.2
22/05:30pm 22.5 19.8 18.5 78 2.5 SSE 30 37 16 20 1020.5 1020.4 2.2
22/05:00pm 22.0 19.4 17.8 77 2.6 SE 28 37 15 20 1020.2 1020.1 2.2
22/04:43pm 22.5 20.8 18.1 76 2.7 ESE 24 41 13 22 1020.0 1019.9 2.2
22/04:30pm 22.4 20.1 17.5 74 3.0 E 26 33 14 18 1019.9 1019.8 2.2
22/04:00pm 22.8 19.7 17.5 72 3.3 E 30 37 16 20 1019.8 1019.7 2.2
22/03:30pm 23.0 19.9 18.3 75 2.9 E 32 37 17 20 1019.7 1019.6 2.2
22/03:00pm 24.0 21.0 18.6 72 3.4 SE 32 37 17 20 1019.5 1019.4 2.2
22/02:30pm 23.6 22.4 19.3 77 2.7 SE 24 30 13 16 1019.8 1019.7 2.2
22/02:00pm 22.3 22.2 20.0 87 1.5 SE 20 32 11 17 1019.7 1019.6 2.2
22/01:30pm 21.2 17.3 17.8 81 2.1 ESE 35 43 19 23 1020.1 1020.0 0.8
22/01:00pm 24.6 22.2 18.3 68 4.0 SE 28 30 15 16 1019.9 1019.8 0.4
22/12:30pm 24.6 21.8 18.3 68 4.0 ESE 30 33 16 18 1020.0 1019.9 0.4
22/12:00pm 24.5 22.0 17.2 63 4.5 ESE 26 32 14 17 1020.2 1020.1 0.4
22/11:30am 24.4 21.3 17.6 66 4.2 ESE 30 37 16 20 1020.5 1020.4 0.4
22/11:00am 22.6 20.3 18.4 77 2.6 SE 28 37 15 20 1021.1 1021.0 0.4
22/10:30am 23.1 21.9 18.4 75 3.0 SE 22 28 12 15 1021.4 1021.3 0.4
22/10:00am 22.5 20.8 18.9 80 2.3 SSE 26 28 14 15 1021.3 1021.2 0.4
22/09:30am 23.8 21.6 17.8 69 3.7 S 26 30 14 16 1021.4 1021.3 0.0
22/09:00am 22.8 21.1 18.1 75 2.9 S 24 30 13 16 1021.3 1021.2 2.0
22/08:30am 22.3 20.4 17.7 75 2.9 S 24 28 13 15 1021.3 1021.2 2.0
22/08:00am 22.1 21.2 18.3 79 2.4 S 20 26 11 14 1021.0 1020.9 2.0
22/07:30am 20.7 19.9 18.1 85 1.6 S 19 24 10 13 1020.7 1020.6 2.0
22/07:00am 20.0 19.9 17.8 87 1.4 S 15 20 8 11 1020.5 1020.4 2.0
22/06:30am 19.7 18.8 17.7 88 1.2 S 19 26 10 14 1020.3 1020.2 2.0
22/06:00am 19.8 19.3 17.8 88 1.2 SSW 17 24 9 13 1020.1 1020.0 2.0
22/05:30am 20.2 19.2 18.0 87 1.4 SSW 20 30 11 16 1019.9 1019.8 2.0
22/05:00am 20.5 18.1 18.3 87 1.4 SSE 28 35 15 19 1019.6 1019.5 2.0
22/04:30am 20.9 18.6 18.5 86 1.5 SE 28 32 15 17 1019.5 1019.4 2.0
22/04:00am 20.4 17.7 18.5 89 1.2 SE 30 35 16 19 1019.3 1019.2 2.0
22/03:30am 20.2 19.3 18.3 89 1.2 S 20 28 11 15 1019.3 1019.2 2.0
22/03:00am 20.3 18.7 18.4 89 1.2 SE 24 28 13 15 1019.4 1019.3 2.0
22/02:30am 20.1 18.1 18.4 90 1.1 SSE 26 33 14 18 1019.6 1019.5 2.0
22/02:00am 19.9 19.5 18.0 89 1.2 S 17 22 9 12 1020.0 1019.9 2.0
22/01:30am 19.9 19.1 17.9 88 1.2 S 19 22 10 12 1020.5 1020.4 1.8
22/01:00am 20.0 19.1 17.8 87 1.4 SSW 19 24 10 13 1020.6 1020.5 1.8
22/12:30am 20.3 19.4 18.1 87 1.4 S 20 26 11 14 1020.9 1020.8 1.8
22/12:00am 20.5 18.5 18.4 88 1.3 SE 26 35 14 19 1021.0 1020.9 1.8
 
Date/Time
EST
Temp
°C
App
Temp
°C
Dew
Point
°C
Rel
Hum
%
Delta-T
°C
Wind Press
QNH
hPa
Press
MSL
hPa
Rain since
9am
mm
Dir  Spd
km/h
Gust
km/h
Spd
kts
Gust
kts
21/11:59pm 20.4 18.8 18.3 88 1.3 SSE 24 35 13 19 1021.0 1020.9 1.8
21/11:30pm 20.7 20.9 18.5 87 1.4 S 15 19 8 10 1021.3 1021.2 1.8
21/11:00pm 21.5 19.1 18.3 82 2.0 SSE 28 30 15 16 1021.3 1021.2 1.6
21/10:30pm 21.4 19.2 17.8 80 2.2 SSE 26 28 14 15 1021.5 1021.4 1.6
21/10:00pm 20.9 18.4 18.8 88 1.3 SE 30 33 16 18 1021.9 1021.8 1.6
21/09:30pm 20.9 18.3 18.7 87 1.4 SSE 30 35 16 19 1021.9 1021.8 1.6
21/09:00pm 21.6 19.1 18.8 84 1.8 SSE 30 33 16 18 1021.7 1021.6 1.6
21/08:30pm 21.7 18.9 19.1 85 1.6 SSE 32 37 17 20 1021.5 1021.4 1.6
21/08:00pm 20.9 20.1 18.5 86 1.5 SSE 20 26 11 14 1021.4 1021.3 1.6
21/07:30pm 21.5 19.1 18.3 82 2.0 SSE 28 32 15 17 1021.2 1021.1 0.6
21/07:00pm 21.1 18.6 18.9 87 1.4 SSE 30 37 16 20 1020.8 1020.7 0.6
21/06:30pm 20.5 17.4 18.4 88 1.3 S 32 35 17 19 1020.6 1020.5 0.6
21/06:00pm 20.2 17.4 18.1 88 1.3 S 30 35 16 19 1020.6 1020.5 0.4
21/05:30pm 20.7 17.4 17.9 84 1.7 SSE 32 37 17 20 1020.7 1020.6 0.0
21/05:00pm 22.6 18.2 16.6 69 3.6 SE 35 41 19 22 1020.2 1020.1 0.0
21/04:57pm 22.7 18.4 16.9 70 3.6 SE 35 41 19 22 1020.1 1020.0 0.0
21/04:30pm 23.4 18.8 17.2 68 3.8 ESE 37 44 20 24 1019.9 1019.8 0.0
21/04:00pm 24.2 20.7 16.5 62 4.7 SE 30 33 16 18 1019.7 1019.6 0.0
21/03:30pm 24.4 20.3 15.9 59 5.2 SE 32 35 17 19 1019.7 1019.6 0.0
21/03:00pm 24.7 20.7 16.2 59 5.2 SE 32 37 17 20 1019.6 1019.5 0.0
21/02:30pm 24.8 20.8 16.2 58 5.3 SE 32 39 17 21 1019.7 1019.6 0.0
21/02:00pm 24.7 21.1 16.2 59 5.2 SE 30 35 16 19 1019.9 1019.8 0.0
21/01:30pm 24.9 21.6 17.9 65 4.4 SE 32 35 17 19 1020.1 1020.0 0.0
21/01:00pm 24.3 20.5 17.3 65 4.3 SE 33 39 18 21 1020.1 1020.0 0.0
21/12:30pm 23.9 20.5 18.1 70 3.6 SE 33 37 18 20 1020.5 1020.4 0.0
21/12:00pm 24.5 21.1 17.7 66 4.2 SE 32 37 17 20 1020.6 1020.5 0.0
21/11:30am 23.7 21.6 18.1 71 3.5 SSE 26 35 14 19 1021.2 1021.1 0.0
21/11:00am 23.8 22.8 18.0 70 3.6 SE 20 24 11 13 1021.4 1021.3 0.0
21/10:30am 23.9 21.1 18.1 70 3.6 SSE 30 37 16 20 1021.7 1021.6 0.0
21/10:00am 24.0 22.9 17.7 68 3.9 SE 20 24 11 13 1021.7 1021.6 0.0
21/09:30am 22.9 18.1 17.6 72 3.3 SE 39 50 21 27 1022.0 1021.9 0.0
21/09:26am 22.9 18.9 17.6 72 3.3 SE 35 48 19 26 1022.0 1021.9 0.0
21/09:00am 23.7 21.1 17.9 70 3.6 SSE 28 37 15 20 1021.9 1021.8 24.4
21/08:30am 23.1 21.7 18.0 73 3.2 S 22 28 12 15 1021.8 1021.7 24.4
21/08:00am 22.5 22.2 18.3 77 2.6 SSW 17 20 9 11 1021.9 1021.8 24.4
21/07:30am 21.7 22.0 18.7 83 1.9 SSW 15 20 8 11 1021.6 1021.5 24.4
21/07:00am 20.9 20.2 18.3 85 1.6 S 19 24 10 13 1021.6 1021.5 24.4
21/06:30am 20.7 21.0 17.9 84 1.7 SSW 13 17 7 9 1021.2 1021.1 24.4
21/06:00am 21.0 20.9 17.8 82 2.0 S 15 26 8 14 1020.9 1020.8 24.4
21/05:30am 22.1 20.2 17.7 76 2.7 SSE 24 28 13 15 1020.5 1020.4 24.4
21/05:00am 22.9 20.1 17.4 71 3.4 SE 28 33 15 18 1020.2 1020.1 24.4
21/04:30am 23.1 19.3 17.3 70 3.6 ESE 33 39 18 21 1019.8 1019.7 24.4
21/04:00am 23.1 19.1 17.6 71 3.4 ESE 35 41 19 22 1019.6 1019.5 24.4
21/03:30am 22.7 18.9 18.0 75 2.9 SE 35 44 19 24 1019.6 1019.5 24.4
21/03:05am 22.9 19.7 18.2 75 2.9 SE 32 50 17 27 1019.8 1019.7 24.0
21/03:00am 22.9 20.5 18.2 75 2.9 SE 28 33 15 18 1019.8 1019.7 24.0
21/02:30am 22.9 20.2 18.4 76 2.8 ESE 30 35 16 19 1020.1 1020.0 24.0
21/02:00am 23.2 21.0 18.7 76 2.8 ESE 28 33 15 18 1020.3 1020.2 24.0
21/01:30am 22.9 20.7 18.7 77 2.7 SE 28 33 15 18 1020.5 1020.4 24.0
21/01:00am 23.1 20.2 18.8 77 2.7 SE 32 39 17 21 1020.9 1020.8 24.0
21/12:30am 23.2 19.9 18.3 74 3.1 ESE 33 39 18 21 1021.0 1020.9 24.0
21/12:00am 23.2 20.7 18.9 77 2.7 SE 30 33 16 18 1021.1 1021.0 24.0
 
Date/Time
EST
Temp
°C
App
Temp
°C
Dew
Point
°C
Rel
Hum
%
Delta-T
°C
Wind Press
QNH
hPa
Press
MSL
hPa
Rain since
9am
mm
Dir  Spd
km/h
Gust
km/h
Spd
kts
Gust
kts
20/11:30pm 22.9 21.0 19.3 80 2.3 SE 28 35 15 19 1021.2 1021.1 24.0
20/11:00pm 22.5 19.6 19.3 82 2.0 ESE 33 43 18 23 1021.2 1021.1 24.0
20/10:47pm 23.1 20.4 19.3 79 2.4 SE 32 50 17 27 1021.2 1021.1 24.0
20/10:30pm 23.0 20.7 19.4 80 2.3 SE 30 37 16 20 1021.2 1021.1 24.0
20/10:00pm 23.0 20.7 20.1 84 1.9 ESE 32 37 17 20 1021.4 1021.3 24.0
20/09:30pm 21.6 20.4 19.2 86 1.5 E 24 37 13 20 1021.7 1021.6 22.8
20/09:00pm 22.4 20.8 20.1 87 1.5 SSE 28 32 15 17 1021.7 1021.6 22.4
20/08:30pm 22.1 20.6 20.2 89 1.2 SSE 28 35 15 19 1021.6 1021.5 22.4
20/08:00pm 21.7 20.7 19.6 88 1.3 SSE 24 28 13 15 1021.7 1021.6 22.0
20/07:30pm 22.1 20.3 19.6 86 1.6 ESE 28 52 15 28 1021.3 1021.2 21.6
20/07:26pm 22.1 19.1 19.1 83 1.9 ESE 33 52 18 28 1021.2 1021.1 21.0
20/07:20pm 22.6 19.6 19.8 84 1.8 SE 35 52 19 28 1021.1 1021.0 20.4
20/07:00pm 23.0 20.9 19.8 82 2.0 SE 30 33 16 18 1021.0 1020.9 20.2
20/06:30pm 23.2 20.5 19.6 80 2.3 SE 33 37 18 20 1020.6 1020.5 20.2
20/06:00pm 23.3 21.6 19.7 80 2.3 SE 28 32 15 17 1020.3 1020.2 20.2
20/05:30pm 23.5 21.2 19.4 78 2.6 ESE 30 35 16 19 1020.3 1020.2 20.2
20/05:00pm 23.3 20.6 19.7 80 2.3 ESE 33 41 18 22 1020.1 1020.0 20.2
20/04:30pm 22.5 20.4 20.6 89 1.2 SE 32 41 17 22 1019.6 1019.5 20.2
20/04:01pm 22.8 21.3 20.9 89 1.2 SE 30 50 16 27 1019.7 1019.6 17.0
20/04:00pm 22.8 21.7 21.1 90 1.1 SE 28 33 15 18 1019.7 1019.6 17.0
20/03:30pm 21.5 21.6 20.0 91 1.0 SE 19 26 10 14 1019.8 1019.7 17.0
20/03:27pm 21.5 21.4 20.0 91 1.0 SE 20 28 11 15 1019.8 1019.7 17.0
20/03:00pm 21.8 18.0 19.7 88 1.3 E 39 50 21 27 1019.6 1019.5 6.6
20/02:51pm 23.7 21.1 19.8 79 2.5 ESE 33 48 18 26 1019.6 1019.5 1.6
20/02:30pm 24.3 22.1 20.4 79 2.5 SSE 32 35 17 19 1019.5 1019.4 1.6
20/02:00pm 23.7 21.5 20.4 82 2.1 SE 32 35 17 19 1019.5 1019.4 1.6
20/01:30pm 24.9 23.2 20.6 77 2.8 SSE 30 35 16 19 1019.8 1019.7 1.4
20/01:00pm 24.1 21.7 20.0 78 2.6 SSE 32 35 17 19 1020.2 1020.1 1.4
20/12:30pm 23.9 22.4 20.2 80 2.4 SE 28 33 15 18 1020.6 1020.5 1.4

Latest Capital City Observations: Canberra | Sydney | Melbourne | Brisbane | Adelaide | Perth | Hobart | Darwin

Other formats

Comma delimited format used in spreadsheet applications
http://www.bom.gov.au/fwo/IDQ60901/IDQ60901.95591.axf

JavaScript Object Notation format (JSON) in row-major order
http://www.bom.gov.au/fwo/IDQ60901/IDQ60901.95591.json

Data quality

Most of these data are generated automatically and are frequently updated. Quality checks on data are not normally performed. It is possible for incorrect values to appear. Refer to information at About Latest Weather Observations and please check the disclaimer before using these data.